Nearby METAR Reports

 

LEVT - Vitoria, Spain
Distance from station: O 10km
Actualización: 17/06/2019 02:30
Despejado
Despejado
 Viento del varies
Viento: varies 2 km/h
Temperatura: 11°C
Rocío: 10°C
Humedad: 94%
Barómetro: 1019 hPa
Resumen: Despejado
Visibility: greater than 10 km
2019/06/17 00:30 LEVT 170030Z VRB01KT CAVOK 11/10 Q1019
LELO - Logrono/Agoncill, Spain
Distance from station: SSE 51km
Actualización: 17/06/2019 02:30
Despejado
Despejado
 Viento del calm
Viento: Calma
Temperatura: 16°C
Rocío: 12°C
Humedad: 77%
Barómetro: 1017 hPa
Clouds: Despejado
Visibility: 10 km
2019/06/17 00:30 LELO 170030Z AUTO 00000KT 9999 NCD 16/12 Q1017
LEBB - Bilbao/Sondica, Spain
Distance from station: NNO 54km
Actualización: 17/06/2019 02:30
Muy nuboso
Muy nuboso
 Viento del ENE
Viento: ENE 4 km/h
Temperatura: 16°C
Rocío: 15°C
Humedad: 94%
Barómetro: 1019 hPa
Clouds: Muy nuboso
Visibility: 10 km
Cloud details: Muy nuboso 335 m
2019/06/17 00:30 LEBB 170030Z AUTO 07002KT 9999 BKN011 16/15 Q1019
 
LEPP - Pamplona/Noain, Spain
Distance from station: E 78km
Actualización: 17/06/2019 02:30
Despejado
Despejado
 Viento del calm
Viento: Calma
Temperatura: 15°C
Rocío: 12°C
Humedad: 82%
Barómetro: 1018 hPa
Clouds: Despejado
Visibility: 10 km
2019/06/17 00:30 LEPP 170030Z AUTO 00000KT 9999 NCD 15/12 Q1018
LESO - San Sebastian/Fu, Spain
Distance from station: NE 85km
Actualización: 17/06/2019 02:30
Muy nuboso
Muy nuboso
 Viento del OSO
Viento: OSO 9 km/h
Temperatura: 17°C
Rocío: 15°C
Humedad: 88%
Barómetro: 1018 hPa
Clouds: Muy nuboso
Visibility: 10 km
Cloud details: Few Clouds 244 m
Muy nuboso 396 m
2019/06/17 00:30 LESO 170030Z AUTO 24005KT 190V290 9999 FEW008 BKN013 17/15 Q1018
LEBG - Burgos/Villafria, Spain
Distance from station: SO 100km
Actualización: 17/06/2019 02:30
Despejado
Despejado
 Viento del NNE
Viento: NNE 11 km/h
Temperatura: 12°C
Rocío: 11°C
Humedad: 94%
Barómetro: 1019 hPa
Clouds: Despejado
Visibility: 10 km
2019/06/17 00:30 LEBG 170030Z AUTO 03006KT 9999 NCD 12/11 Q1019
 
LFBZ - Biarritz/Anglet, France
Distance from station: NE 111km
Actualización: 17/06/2019 02:30
Muy nuboso
Muy nuboso
 Viento del O
Viento: O 17 km/h
Temperatura: 17°C
Rocío: 16°C
Humedad: 94%
Barómetro: 1018 hPa
Clouds: Muy nuboso
Visibility: 10 km
Cloud details: Muy nuboso 152 m
2019/06/17 00:30 LFBZ 170030Z AUTO 26009KT 230V290 9999 BKN005 17/16 Q1018 TEMPO 4000 BR
LEXJ - Santander/Paraya, Spain
Distance from station: ONO 117km
Actualización: 17/06/2019 02:30
Despejado
Despejado
 Viento del calm
Viento: Calma
Temperatura: 15°C
Rocío: 13°C
Humedad: 88%
Barómetro: 1019 hPa
Clouds: Despejado
Visibility: 10 km
2019/06/17 00:30 LEXJ 170030Z AUTO 00000KT 9999 NCD 15/13 Q1019